createdAt,value
2023-03-17T00:01:55.993Z,98166.33
2023-03-17T00:04:28.157Z,98162.66
2023-03-17T00:06:59.927Z,98160.11
2023-03-17T00:09:31.270Z,98157.05
2023-03-17T00:12:02.911Z,98152.59
2023-03-17T00:14:33.819Z,98148.88
2023-03-17T00:17:04.903Z,98146.45
2023-03-17T00:19:37.561Z,98143.80
2023-03-17T00:22:18.151Z,98141.88
2023-03-17T00:24:49.644Z,98133.91
2023-03-17T00:27:20.848Z,98137.39
2023-03-17T00:29:51.883Z,98138.48
2023-03-17T00:32:23.847Z,98137.47
2023-03-17T00:34:55.086Z,98132.90
2023-03-17T00:37:26.127Z,98123.89
2023-03-17T00:39:57.384Z,98120.05
2023-03-17T00:42:28.729Z,98123.70
2023-03-17T00:44:59.774Z,98128.56
2023-03-17T00:47:30.916Z,98124.14
2023-03-17T00:50:02.014Z,98118.51
2023-03-17T00:52:34.504Z,98114.80
2023-03-17T00:55:06.065Z,98107.44
2023-03-17T00:57:37.812Z,98102.41
2023-03-17T01:00:18.457Z,98108.50
2023-03-17T01:02:50.038Z,98112.65
2023-03-17T01:05:19.889Z,98111.88
2023-03-17T01:07:54.167Z,98114.77
2023-03-17T01:10:27.166Z,98109.53
2023-03-17T01:12:59.970Z,98111.80
2023-03-17T01:15:32.948Z,98110.69
2023-03-17T01:18:04.657Z,98106.42
2023-03-17T01:20:37.093Z,98103.90
2023-03-17T01:23:08.435Z,98098.48
2023-03-17T01:25:39.630Z,98096.65
2023-03-17T01:28:14.282Z,98099.16
2023-03-17T01:30:45.780Z,98101.02
2023-03-17T01:33:17.277Z,98081.03
2023-03-17T01:35:47.309Z,98071.69
2023-03-17T01:38:18.923Z,98071.89
2023-03-17T01:40:49.599Z,98065.84
2023-03-17T01:43:23.674Z,98059.66
2023-03-17T01:46:22.955Z,98055.83
2023-03-17T01:49:04.282Z,98043.32
2023-03-17T01:51:40.469Z,98043.48
2023-03-17T01:54:17.130Z,98040.60
2023-03-17T01:56:52.862Z,98036.08
2023-03-17T01:59:28.703Z,98039.76
2023-03-17T02:02:04.768Z,98046.46
2023-03-17T02:04:37.011Z,98048.48
2023-03-17T02:07:08.858Z,98053.83
2023-03-17T02:09:40.133Z,98048.55
2023-03-17T02:12:13.606Z,98045.73
2023-03-17T02:14:45.276Z,98042.64
2023-03-17T02:17:16.601Z,98050.10
2023-03-17T02:19:47.947Z,98048.20
2023-03-17T02:22:18.700Z,98041.20
2023-03-17T02:24:53.217Z,98032.39
2023-03-17T02:27:27.824Z,98032.83
2023-03-17T02:30:00.223Z,98034.60
2023-03-17T02:32:36.286Z,98032.20
2023-03-17T02:35:08.757Z,98032.34
2023-03-17T02:37:40.195Z,98027.36
2023-03-17T02:40:14.536Z,98030.41
2023-03-17T02:42:46.841Z,98030.58
2023-03-17T02:45:18.083Z,98034.70
2023-03-17T02:47:51.535Z,98028.54
2023-03-17T02:50:24.949Z,98025.73
2023-03-17T02:52:56.110Z,98015.89
2023-03-17T02:55:27.463Z,98010.30
2023-03-17T02:57:58.298Z,98007.41
2023-03-17T03:00:30.143Z,98006.59
2023-03-17T03:03:01.524Z,98009.62
2023-03-17T03:05:31.403Z,98014.52
2023-03-17T03:08:03.348Z,98019.64
2023-03-17T03:10:34.499Z,98012.77
2023-03-17T03:13:05.714Z,98008.33
2023-03-17T03:15:37.606Z,98003.48
2023-03-17T03:18:08.849Z,98000.92
2023-03-17T03:20:39.979Z,98001.39
2023-03-17T03:23:11.449Z,98008.10
2023-03-17T03:25:43.010Z,98009.54
2023-03-17T03:28:12.392Z,98009.19
2023-03-17T03:30:44.821Z,98012.54
2023-03-17T03:33:17.641Z,98019.39
2023-03-17T03:35:48.743Z,98019.52
2023-03-17T03:38:19.982Z,98014.01
2023-03-17T03:40:51.362Z,98013.20
2023-03-17T03:43:24.060Z,98013.55
2023-03-17T03:45:55.638Z,98013.02
2023-03-17T03:48:26.856Z,98014.83
2023-03-17T03:51:01.205Z,98014.99
2023-03-17T03:53:32.637Z,98010.08
2023-03-17T03:56:03.490Z,98001.48
2023-03-17T03:58:34.508Z,98000.86
2023-03-17T04:01:08.498Z,98001.60
2023-03-17T04:03:39.844Z,97997.63
2023-03-17T04:06:11.446Z,97994.67
2023-03-17T04:08:42.506Z,98006.79
2023-03-17T04:11:13.418Z,98011.08
2023-03-17T04:13:44.551Z,98010.55
2023-03-17T04:16:16.319Z,98002.05
2023-03-17T04:18:47.825Z,98001.96
2023-03-17T04:21:20.665Z,97992.44
2023-03-17T04:23:52.020Z,97991.74
2023-03-17T04:26:23.614Z,97987.30
2023-03-17T04:28:54.726Z,97974.15
2023-03-17T04:31:25.941Z,97972.27
2023-03-17T04:33:56.952Z,97978.85
2023-03-17T04:36:28.078Z,97978.63
2023-03-17T04:38:58.999Z,97978.50
2023-03-17T04:41:30.145Z,97976.66
2023-03-17T04:44:01.174Z,97971.92
2023-03-17T04:46:33.162Z,97985.63
2023-03-17T04:49:04.490Z,97989.79
2023-03-17T04:51:36.891Z,97998.26
2023-03-17T04:54:08.327Z,97999.11
2023-03-17T04:56:39.437Z,97997.80
2023-03-17T04:59:10.585Z,98000.92
2023-03-17T05:01:42.134Z,98002.40
2023-03-17T05:04:22.128Z,98000.69
2023-03-17T05:07:01.729Z,98010.38
2023-03-17T05:09:33.033Z,98013.00
2023-03-17T05:12:04.442Z,98008.89
2023-03-17T05:14:35.487Z,98002.69
2023-03-17T05:17:06.446Z,98003.54
2023-03-17T05:19:37.418Z,97999.22
2023-03-17T05:22:08.475Z,97996.56
2023-03-17T05:24:39.582Z,98000.10
2023-03-17T05:27:10.742Z,97998.42
2023-03-17T05:29:42.432Z,98002.27
2023-03-17T05:32:13.686Z,97999.79
2023-03-17T05:34:46.418Z,97998.75
2023-03-17T05:37:17.759Z,97993.98
2023-03-17T05:39:48.741Z,97990.27
2023-03-17T05:42:19.967Z,97988.95
2023-03-17T05:44:51.239Z,97995.21
2023-03-17T05:47:21.160Z,97994.33
2023-03-17T05:49:52.826Z,97989.30
2023-03-17T05:52:23.941Z,97989.06
2023-03-17T05:54:55.472Z,97993.45
2023-03-17T05:57:24.954Z,97987.56
2023-03-17T05:59:55.927Z,97989.20
2023-03-17T06:02:27.221Z,97989.62
2023-03-17T06:04:58.318Z,97981.63
2023-03-17T06:07:41.005Z,97992.45
2023-03-17T06:10:18.475Z,97986.58
2023-03-17T06:12:49.584Z,97987.62
2023-03-17T06:15:21.287Z,97979.63
2023-03-17T06:17:52.475Z,97971.91
2023-03-17T06:20:23.622Z,97971.98
2023-03-17T06:23:03.898Z,97966.33
2023-03-17T06:25:37.118Z,97967.02
2023-03-17T06:28:08.344Z,97968.62
2023-03-17T06:30:40.753Z,97963.39
2023-03-17T06:33:12.303Z,97965.24
2023-03-17T06:35:43.763Z,97962.83
2023-03-17T06:38:13.570Z,97967.58
2023-03-17T06:40:44.819Z,97970.48
2023-03-17T06:43:15.828Z,97968.05
2023-03-17T06:45:46.971Z,97963.50
2023-03-17T06:48:18.019Z,97967.71
2023-03-17T06:50:50.292Z,97964.97
2023-03-17T06:53:22.689Z,97969.35
2023-03-17T06:55:53.656Z,97965.43
2023-03-17T06:58:24.948Z,97964.04
2023-03-17T07:00:55.939Z,97969.24
2023-03-17T07:03:28.378Z,97981.19
2023-03-17T07:06:01.122Z,97979.61
2023-03-17T07:08:32.124Z,97983.89
2023-03-17T07:11:04.287Z,97984.59
2023-03-17T07:13:37.352Z,97985.40
2023-03-17T07:16:09.562Z,97992.20
2023-03-17T07:18:40.458Z,97998.82
2023-03-17T07:21:11.902Z,97993.20
2023-03-17T07:23:43.234Z,97982.21
2023-03-17T07:26:14.651Z,97983.30
2023-03-17T07:28:44.715Z,97980.94
2023-03-17T07:31:15.858Z,97984.23
2023-03-17T07:33:47.052Z,97981.11
2023-03-17T07:36:18.281Z,97975.32
2023-03-17T07:38:49.165Z,97987.38
2023-03-17T07:41:22.029Z,97981.93
2023-03-17T07:43:53.048Z,97976.55
2023-03-17T07:46:24.326Z,97980.05
2023-03-17T07:48:55.709Z,97976.98
2023-03-17T07:51:28.230Z,97975.95
2023-03-17T07:54:04.007Z,97979.88
2023-03-17T07:56:35.709Z,97971.39
2023-03-17T07:59:07.753Z,97964.23
2023-03-17T08:01:40.058Z,97954.87
2023-03-17T08:04:12.936Z,97947.11
2023-03-17T08:06:46.600Z,97947.70
2023-03-17T08:09:17.832Z,97954.65
2023-03-17T08:11:49.138Z,97955.86
2023-03-17T08:14:18.537Z,97956.95
2023-03-17T08:16:50.137Z,97963.48
2023-03-17T08:19:22.146Z,97966.14
2023-03-17T08:21:53.576Z,97975.59
2023-03-17T08:24:24.656Z,97982.67
2023-03-17T08:26:55.580Z,97981.41
2023-03-17T08:29:26.751Z,97979.40
2023-03-17T08:31:57.876Z,97964.61
2023-03-17T08:34:29.213Z,97948.19
2023-03-17T08:37:00.919Z,97931.99
2023-03-17T08:39:32.297Z,97936.04
2023-03-17T08:42:03.950Z,97945.89
2023-03-17T08:44:35.739Z,97958.89
2023-03-17T08:47:07.224Z,97961.04
2023-03-17T08:49:38.662Z,97955.66
2023-03-17T08:52:10.059Z,97954.55
2023-03-17T08:54:39.291Z,97949.69
2023-03-17T08:57:10.747Z,97941.50
2023-03-17T08:59:42.402Z,97933.05
2023-03-17T09:02:16.007Z,97927.86
2023-03-17T09:04:48.320Z,97925.58
2023-03-17T09:07:19.462Z,97930.08
2023-03-17T09:09:50.800Z,97934.24
2023-03-17T09:12:22.274Z,97935.11
2023-03-17T09:14:53.614Z,97938.63
2023-03-17T09:17:23.375Z,97935.96
2023-03-17T09:19:54.423Z,97933.91
2023-03-17T09:22:25.341Z,97941.05
2023-03-17T09:24:56.500Z,97945.38
2023-03-17T09:27:27.740Z,97946.74
2023-03-17T09:29:57.101Z,97954.53
2023-03-17T09:32:28.493Z,97964.90
2023-03-17T09:34:59.410Z,97963.48
2023-03-17T09:37:30.732Z,97957.06
2023-03-17T09:40:02.293Z,97951.50
2023-03-17T09:42:47.542Z,97940.80
2023-03-17T09:45:32.639Z,97932.23
2023-03-17T09:48:26.265Z,97932.77
2023-03-17T09:51:02.330Z,97931.17
2023-03-17T09:53:36.391Z,97927.30
2023-03-17T09:56:13.644Z,97920.68
2023-03-17T09:58:51.058Z,97923.37
2023-03-17T10:01:23.593Z,97912.20
2023-03-17T10:03:54.939Z,97908.09
2023-03-17T10:06:35.847Z,97903.83
2023-03-17T10:09:17.397Z,97890.58
2023-03-17T10:11:52.071Z,97882.27
2023-03-17T10:14:39.710Z,97879.38
2023-03-17T10:17:18.669Z,97879.02
2023-03-17T10:19:57.418Z,97878.85
2023-03-17T10:22:33.601Z,97872.23
2023-03-17T10:25:15.002Z,97869.61
2023-03-17T10:27:50.131Z,97876.27
2023-03-17T10:30:24.050Z,97884.03
2023-03-17T10:33:00.026Z,97884.83
2023-03-17T10:35:36.101Z,97875.71
2023-03-17T10:38:18.087Z,97874.88
2023-03-17T10:40:57.495Z,97873.96
2023-03-17T10:43:31.869Z,97870.62
2023-03-17T10:46:05.629Z,97864.61
2023-03-17T10:48:40.000Z,97856.32
2023-03-17T10:51:12.919Z,97853.29
2023-03-17T10:53:44.468Z,97853.60
2023-03-17T10:56:27.856Z,97855.33
2023-03-17T10:59:05.823Z,97843.27
2023-03-17T11:01:41.502Z,97839.24
2023-03-17T11:04:35.686Z,97835.50
2023-03-17T11:07:17.539Z,97827.03
2023-03-17T11:09:52.022Z,97825.30
2023-03-17T11:12:29.295Z,97825.89
2023-03-17T11:15:03.801Z,97820.21
2023-03-17T11:17:45.558Z,97811.38
2023-03-17T11:20:30.416Z,97805.04
2023-03-17T11:23:08.849Z,97802.20
2023-03-17T11:25:45.175Z,97793.90
2023-03-17T11:28:22.048Z,97782.58
2023-03-17T11:31:07.490Z,97786.69
2023-03-17T11:33:50.754Z,97780.96
2023-03-17T11:36:39.134Z,97781.23
2023-03-17T11:39:17.448Z,97780.38
2023-03-17T11:42:10.808Z,97777.21
2023-03-17T11:45:09.861Z,97777.19
2023-03-17T11:47:50.371Z,97771.27
2023-03-17T11:50:29.268Z,97765.10
2023-03-17T11:53:15.245Z,97768.00
2023-03-17T11:55:50.296Z,97764.98
2023-03-17T11:58:35.546Z,97763.08
2023-03-17T12:01:09.495Z,97770.39
2023-03-17T12:03:46.299Z,97767.56
2023-03-17T12:06:22.633Z,97766.65
2023-03-17T12:08:59.870Z,97758.13
2023-03-17T12:11:35.098Z,97752.33
2023-03-17T12:14:14.063Z,97748.92
2023-03-17T12:16:51.237Z,97742.39
2023-03-17T12:19:28.058Z,97737.63
2023-03-17T12:22:04.506Z,97734.38
2023-03-17T12:24:40.914Z,97740.31
2023-03-17T12:27:16.978Z,97741.64
2023-03-17T12:29:53.373Z,97733.00
2023-03-17T12:32:30.451Z,97730.98
2023-03-17T12:35:00.947Z,97736.56
2023-03-17T12:37:32.233Z,97736.63
2023-03-17T12:40:09.899Z,97732.55
2023-03-17T12:42:53.733Z,97725.47
2023-03-17T12:45:46.147Z,97720.38
2023-03-17T12:48:40.744Z,97721.27
2023-03-17T12:51:37.240Z,97729.43
2023-03-17T12:54:19.032Z,97726.98
2023-03-17T12:56:51.760Z,97726.60
2023-03-17T12:59:26.497Z,97723.30
2023-03-17T13:02:06.436Z,97713.21
2023-03-17T13:04:38.306Z,97703.98
2023-03-17T13:07:16.201Z,97700.86
2023-03-17T13:09:50.802Z,97697.44
2023-03-17T13:12:52.549Z,97708.02
2023-03-17T13:15:48.596Z,97702.41
2023-03-17T13:18:50.119Z,97698.35
2023-03-17T13:21:25.054Z,97693.27
2023-03-17T13:24:20.514Z,97699.13
2023-03-17T13:26:57.501Z,97700.80
2023-03-17T13:29:48.856Z,97703.23
2023-03-17T13:32:40.044Z,97714.27
2023-03-17T13:35:40.744Z,97710.23
2023-03-17T13:38:39.779Z,97693.52
2023-03-17T13:41:34.599Z,97691.64
2023-03-17T13:44:16.740Z,97688.52
2023-03-17T13:46:48.695Z,97681.31
2023-03-17T13:49:28.678Z,97669.78
2023-03-17T13:52:04.438Z,97672.54
2023-03-17T13:54:42.294Z,97673.67
2023-03-17T13:57:28.790Z,97672.86
2023-03-17T14:00:22.798Z,97665.02
2023-03-17T14:03:04.944Z,97660.27
2023-03-17T14:05:38.343Z,97656.65
2023-03-17T14:08:20.230Z,97653.54
2023-03-17T14:10:57.269Z,97649.32
2023-03-17T14:13:33.163Z,97641.84
2023-03-17T14:16:13.511Z,97636.20
2023-03-17T14:18:49.619Z,97641.70
2023-03-17T14:21:26.700Z,97640.77
2023-03-17T14:24:00.182Z,97635.20
2023-03-17T14:26:33.395Z,97637.42
2023-03-17T14:29:06.122Z,97634.40
2023-03-17T14:31:38.122Z,97635.02
2023-03-17T14:34:16.125Z,97638.07
2023-03-17T14:36:47.367Z,97638.85
2023-03-17T14:39:27.004Z,97643.48
2023-03-17T14:42:02.994Z,97636.44
2023-03-17T14:44:40.993Z,97638.77
2023-03-17T14:47:20.375Z,97633.92
2023-03-17T14:49:51.969Z,97627.35
2023-03-17T14:52:25.742Z,97625.60
2023-03-17T14:54:59.574Z,97620.53
2023-03-17T14:57:34.629Z,97613.27
2023-03-17T15:00:29.034Z,97614.58
2023-03-17T15:03:03.333Z,97620.05
2023-03-17T15:05:40.781Z,97613.34
2023-03-17T15:08:39.694Z,97612.32
2023-03-17T15:11:17.003Z,97609.20
2023-03-17T15:13:49.153Z,97602.21
2023-03-17T15:16:25.042Z,97602.27
2023-03-17T15:19:05.225Z,97597.74
2023-03-17T15:21:42.414Z,97589.95
2023-03-17T15:24:40.178Z,97587.78
2023-03-17T15:27:17.402Z,97588.27
2023-03-17T15:29:49.037Z,97588.05
2023-03-17T15:32:22.494Z,97582.48
2023-03-17T15:34:55.610Z,97582.14
2023-03-17T15:37:29.659Z,97582.01
2023-03-17T15:40:01.276Z,97576.80
2023-03-17T15:42:34.552Z,97578.11
2023-03-17T15:45:07.271Z,97576.98
2023-03-17T15:47:41.714Z,97568.30
2023-03-17T15:50:23.980Z,97570.06
2023-03-17T15:52:56.252Z,97566.64
2023-03-17T15:55:30.471Z,97564.41
2023-03-17T15:58:01.518Z,97570.44
2023-03-17T16:00:33.583Z,97577.06
2023-03-17T16:03:13.514Z,97584.00
2023-03-17T16:05:45.652Z,97580.55
2023-03-17T16:08:17.977Z,97582.77
2023-03-17T16:10:49.401Z,97585.90
2023-03-17T16:13:20.465Z,97583.10
2023-03-17T16:15:57.147Z,97577.48
2023-03-17T16:18:34.035Z,97579.40
2023-03-17T16:21:06.136Z,97585.64
2023-03-17T16:23:38.489Z,97590.10
2023-03-17T16:26:16.154Z,97590.60
2023-03-17T16:28:49.468Z,97595.85
2023-03-17T16:31:24.748Z,97590.10
2023-03-17T16:33:56.272Z,97593.48
2023-03-17T16:36:28.344Z,97593.08
2023-03-17T16:39:00.208Z,97595.70
2023-03-17T16:41:35.755Z,97605.89
2023-03-17T16:44:09.452Z,97605.02
2023-03-17T16:46:44.919Z,97603.50
2023-03-17T16:49:18.498Z,97602.00
2023-03-17T16:51:50.599Z,97600.77
2023-03-17T16:54:22.169Z,97602.95
2023-03-17T16:56:53.539Z,97604.39
2023-03-17T16:59:29.665Z,97602.11
2023-03-17T17:02:02.122Z,97599.23
2023-03-17T17:04:36.778Z,97601.66
2023-03-17T17:07:07.746Z,97603.02
2023-03-17T17:09:38.746Z,97601.42
2023-03-17T17:12:08.850Z,97598.78
2023-03-17T17:14:42.764Z,97597.79
2023-03-17T17:17:12.136Z,97604.20
2023-03-17T17:19:41.873Z,97607.88
2023-03-17T17:22:13.830Z,97612.37
2023-03-17T17:24:44.991Z,97616.08
2023-03-17T17:27:15.954Z,97621.53
2023-03-17T17:29:47.407Z,97624.62
2023-03-17T17:32:19.726Z,97622.64
2023-03-17T17:34:50.901Z,97623.02
2023-03-17T17:37:21.900Z,97623.06
2023-03-17T17:39:53.357Z,97625.44
2023-03-17T17:42:24.428Z,97623.80
2023-03-17T17:44:53.812Z,97621.18
2023-03-17T17:47:25.022Z,97624.60
2023-03-17T17:49:56.156Z,97630.02
2023-03-17T17:52:25.733Z,97634.28
2023-03-17T17:54:57.273Z,97628.54
2023-03-17T17:57:28.493Z,97626.26
2023-03-17T17:59:59.480Z,97629.11
2023-03-17T18:02:30.736Z,97630.11
2023-03-17T18:05:01.929Z,97628.64
2023-03-17T18:07:34.399Z,97625.80
2023-03-17T18:10:06.209Z,97633.52
2023-03-17T18:12:38.016Z,97632.98
2023-03-17T18:15:11.273Z,97632.90
2023-03-17T18:17:43.142Z,97629.63
2023-03-17T18:20:17.072Z,97632.42
2023-03-17T18:22:48.430Z,97632.36
2023-03-17T18:25:20.323Z,97630.88
2023-03-17T18:27:51.371Z,97631.05
2023-03-17T18:30:26.821Z,97636.68
2023-03-17T18:33:01.600Z,97637.37
2023-03-17T18:35:33.398Z,97636.16
2023-03-17T18:38:04.839Z,97637.10
2023-03-17T18:40:36.188Z,97626.06
2023-03-17T18:43:07.302Z,97629.34
2023-03-17T18:45:38.931Z,97625.13
2023-03-17T18:48:08.430Z,97626.66
2023-03-17T18:50:39.536Z,97625.00
2023-03-17T18:53:18.389Z,97623.79
2023-03-17T18:55:49.664Z,97621.30
2023-03-17T18:58:20.725Z,97624.88
2023-03-17T19:00:53.566Z,97619.16
2023-03-17T19:03:32.288Z,97619.11
2023-03-17T19:06:13.849Z,97622.02
2023-03-17T19:08:46.206Z,97618.15
2023-03-17T19:11:20.978Z,97620.14
2023-03-17T19:13:52.737Z,97620.39
2023-03-17T19:16:28.910Z,97621.66
2023-03-17T19:19:01.172Z,97628.27
2023-03-17T19:21:32.739Z,97629.85
2023-03-17T19:24:05.063Z,97624.52
2023-03-17T19:26:37.485Z,97629.90
2023-03-17T19:29:09.895Z,97633.71
2023-03-17T19:31:41.697Z,97632.73
2023-03-17T19:34:15.247Z,97635.98
2023-03-17T19:36:48.292Z,97636.52
2023-03-17T19:39:19.812Z,97636.06
2023-03-17T19:41:55.055Z,97637.68
2023-03-17T19:44:27.163Z,97641.64
2023-03-17T19:46:58.355Z,97648.45
2023-03-17T19:49:29.544Z,97650.80
2023-03-17T19:52:00.548Z,97648.51
2023-03-17T19:54:31.920Z,97645.56
2023-03-17T19:57:03.055Z,97644.90
2023-03-17T19:59:34.127Z,97652.02
2023-03-17T20:02:06.186Z,97646.70
2023-03-17T20:04:37.963Z,97652.33
2023-03-17T20:07:08.983Z,97656.39
2023-03-17T20:09:40.214Z,97655.98
2023-03-17T20:12:11.453Z,97655.02
2023-03-17T20:14:41.271Z,97647.77
2023-03-17T20:17:13.966Z,97651.44
2023-03-17T20:19:44.985Z,97648.14
2023-03-17T20:22:16.126Z,97645.96
2023-03-17T20:24:48.013Z,97644.49
2023-03-17T20:27:19.722Z,97642.41
2023-03-17T20:29:51.575Z,97648.02
2023-03-17T20:32:23.109Z,97643.84
2023-03-17T20:34:54.420Z,97639.77
2023-03-17T20:37:25.897Z,97637.13
2023-03-17T20:39:57.607Z,97626.14
2023-03-17T20:42:28.907Z,97625.94
2023-03-17T20:45:00.844Z,97621.66
2023-03-17T20:47:33.824Z,97619.32
2023-03-17T20:50:06.407Z,97617.95
2023-03-17T20:52:38.289Z,97618.66
2023-03-17T20:55:13.948Z,97618.86
2023-03-17T20:57:47.565Z,97622.63
2023-03-17T21:00:22.150Z,97619.83
2023-03-17T21:02:53.857Z,97616.88
2023-03-17T21:05:27.598Z,97619.02
2023-03-17T21:07:58.893Z,97618.55
2023-03-17T21:10:30.248Z,97616.46
2023-03-17T21:13:01.510Z,97613.92
2023-03-17T21:15:32.550Z,97612.13
2023-03-17T21:18:02.179Z,97614.42
2023-03-17T21:20:33.621Z,97614.30
2023-03-17T21:23:07.972Z,97613.92
2023-03-17T21:25:39.074Z,97614.68
2023-03-17T21:28:11.239Z,97612.80
2023-03-17T21:30:44.952Z,97614.42
2023-03-17T21:33:16.165Z,97613.66
2023-03-17T21:35:47.495Z,97606.85
2023-03-17T21:38:18.604Z,97612.60
2023-03-17T21:40:49.915Z,97609.05
2023-03-17T21:43:19.451Z,97615.74
2023-03-17T21:45:50.598Z,97607.66
2023-03-17T21:48:20.838Z,97610.60
2023-03-17T21:50:52.064Z,97609.70
2023-03-17T21:53:23.406Z,97613.00
2023-03-17T21:55:54.577Z,97607.45
2023-03-17T21:58:24.448Z,97602.56
2023-03-17T22:00:55.430Z,97602.77
2023-03-17T22:03:26.441Z,97603.48
2023-03-17T22:05:56.692Z,97602.27
2023-03-17T22:08:28.836Z,97603.34
2023-03-17T22:11:00.199Z,97600.99
2023-03-17T22:13:31.283Z,97595.95
2023-03-17T22:16:04.005Z,97594.02
2023-03-17T22:18:35.072Z,97598.76
2023-03-17T22:21:08.322Z,97602.16
2023-03-17T22:23:42.279Z,97597.64
2023-03-17T22:26:15.798Z,97602.83
2023-03-17T22:28:50.102Z,97605.13
2023-03-17T22:31:23.237Z,97606.91
2023-03-17T22:33:56.870Z,97610.83
2023-03-17T22:36:28.577Z,97606.39
2023-03-17T22:39:00.431Z,97602.79
2023-03-17T22:41:32.465Z,97602.02
2023-03-17T22:44:03.935Z,97589.75
2023-03-17T22:46:35.189Z,97588.89
2023-03-17T22:49:04.693Z,97594.29
2023-03-17T22:51:36.671Z,97594.08
2023-03-17T22:54:08.665Z,97596.27
2023-03-17T22:56:40.188Z,97596.94
2023-03-17T22:59:11.645Z,97597.13
2023-03-17T23:01:42.800Z,97598.46
2023-03-17T23:04:14.175Z,97593.88
2023-03-17T23:06:45.237Z,97595.97
2023-03-17T23:09:15.070Z,97602.06
2023-03-17T23:11:47.461Z,97603.50
2023-03-17T23:14:18.767Z,97602.07
2023-03-17T23:16:49.851Z,97603.29
2023-03-17T23:19:21.330Z,97605.88
2023-03-17T23:21:52.283Z,97606.95
2023-03-17T23:24:23.473Z,97604.81
2023-03-17T23:26:55.167Z,97599.42
2023-03-17T23:29:27.910Z,97598.80
2023-03-17T23:31:58.976Z,97600.29
2023-03-17T23:34:30.857Z,97605.98
2023-03-17T23:37:01.688Z,97608.06
2023-03-17T23:39:33.617Z,97603.73
2023-03-17T23:42:05.058Z,97601.19
2023-03-17T23:44:36.238Z,97599.31
2023-03-17T23:47:07.866Z,97595.65
2023-03-17T23:49:38.924Z,97596.25
2023-03-17T23:52:10.453Z,97596.35
2023-03-17T23:54:41.459Z,97592.08
2023-03-17T23:57:13.048Z,97596.65
2023-03-17T23:59:44.395Z,97598.93
